Impacts METAR Board
IDs:

KLGA - New York/La Guardia, NY, US

Updated at: 0300 UTC 20 Aug 2018
Potential Impact None Slight Moderate High
Time 19/15Z 19/16Z 19/17Z 19/18Z 19/19Z 19/20Z 19/21Z 19/22Z 19/23Z 20/00Z 20/01Z 20/02Z 20/03Z
Temp72 72 71 72 73 72 74 73 73 73 73 73 72
Dewpt62 62 63 63 62 65 65 64 64 64 64 65 62
Altim29.98 29.99 29.99 29.99 29.99 30.00 30.00 30.02 30.03 30.04 30.05 30.07 30.08
VIS10 8 8 8 8 9 10 10 10 10 10 10 10
CIG18 20 22 31 31 38 41 48 50 60 36 32 80
CoverBKNBKNOVCOVCOVCOVCOVCOVCOVCOVCOVCOVCOVC
FltCatMVFRMVFRMVFRVFRVFRVFRVFRVFRVFRVFRVFRVFRVFR
WX-----RA-RA---RA--------------
WDir6060608060202030204040130100
WSpd15 14 14 12 8 8 7 7 6 6 6 6 8
WGst-- -- 23 -- 16 -- -- -- -- -- -- -- --
Raw hourly METARs
KLGA 191451Z 06015KT 10SM BKN018 BKN035 BKN130 22/17 A2998 RMK AO2 SLP153 60000 T02220167 53019 $
KLGA 191551Z 06014KT 8SM BKN020 BKN035 BKN130 22/17 A2999 RMK AO2 RAB23E33 SLP154 P0000 T02220167 $
KLGA 191651Z 06014G23KT 8SM -RA BKN022 BKN035 OVC130 22/17 A2999 RMK AO2 RAB1556 SLP154 P0003 T02170172 $
KLGA 191754Z 08012KT 8SM -RA FEW015 BKN031 BKN040 OVC130 22/17 A2999 RMK AO2 P0000 T02220172 $
KLGA 191851Z 06008G16KT 8SM FEW015 BKN031 BKN040 OVC130 23/17 A2999 RMK AO2 RAE26 SLP157 P0000 T02280167 $
KLGA 191951Z 02008KT 9SM -RA OVC038 22/18 A3000 RMK AO2 RAB07 SLP158 P0010 T02220183 $
KLGA 192051Z 02007KT 10SM OVC041 23/18 A3000 RMK AO2 RAE13 SLP158 P0000 60010 T02330183 51003 $
KLGA 192151Z 03007KT 10SM OVC048 23/18 A3002 RMK AO2 SLP165 T02280178 $
KLGA 192251Z 02006KT 10SM OVC050 23/18 A3003 RMK AO2 SLP167 T02280178 $
KLGA 192351Z 04006KT 10SM BKN060 OVC085 23/18 A3004 RMK AO2 SLP171 60010 T02280178 10239 20217 51013 $
KLGA 200051Z 04006KT 10SM BKN036 BKN042 OVC085 23/18 A3005 RMK AO2 SLP177 T02280178 $
KLGA 200151Z 13006KT 10SM SCT020 BKN032 OVC048 23/18 A3007 RMK AO2 SLP181 T02280183 $
KLGA 200251Z 10008KT 10SM OVC080 22/17 A3008 RMK AO2 SLP186 T02220167 51015 $



Page loaded:  03:32 UTC  |   08:32 PM Pacific  |   09:32 PM Mountain  |   10:32 PM Central  |   11:32 PM Eastern

 

ADVISORIES

FORECASTS

FORECASTS

OBSERVATIONS

USER TOOLS

ABOUT US